sensor_id;sensor_type;location;lat;lon;timestamp;P1;durP1;ratioP1;P2;durP2;ratioP2
62056;SDS011;48016;50.284;18.860;2022-11-15T00:02:24;41.40;;;19.30;;
62056;SDS011;48016;50.284;18.860;2022-11-15T00:04:50;37.80;;;19.80;;
62056;SDS011;48016;50.284;18.860;2022-11-15T00:07:18;41.70;;;20.60;;
62056;SDS011;48016;50.284;18.860;2022-11-15T00:12:11;32.10;;;16.20;;
62056;SDS011;48016;50.284;18.860;2022-11-15T00:14:38;27.50;;;15.00;;
62056;SDS011;48016;50.284;18.860;2022-11-15T00:17:05;30.00;;;16.90;;
62056;SDS011;48016;50.284;18.860;2022-11-15T00:19:31;32.10;;;17.20;;
62056;SDS011;48016;50.284;18.860;2022-11-15T00:21:58;33.70;;;15.90;;
62056;SDS011;48016;50.284;18.860;2022-11-15T00:24:25;34.50;;;17.30;;
62056;SDS011;48016;50.284;18.860;2022-11-15T00:26:52;37.60;;;17.80;;
62056;SDS011;48016;50.284;18.860;2022-11-15T00:29:18;36.90;;;18.60;;
62056;SDS011;48016;50.284;18.860;2022-11-15T00:31:45;35.60;;;18.50;;
62056;SDS011;48016;50.284;18.860;2022-11-15T00:34:11;39.60;;;19.40;;
62056;SDS011;48016;50.284;18.860;2022-11-15T00:36:39;35.70;;;18.20;;
62056;SDS011;48016;50.284;18.860;2022-11-15T00:39:05;36.80;;;18.70;;
62056;SDS011;48016;50.284;18.860;2022-11-15T00:41:32;41.00;;;20.10;;
62056;SDS011;48016;50.284;18.860;2022-11-15T00:43:58;36.90;;;18.20;;
62056;SDS011;48016;50.284;18.860;2022-11-15T00:46:25;39.00;;;20.30;;
62056;SDS011;48016;50.284;18.860;2022-11-15T00:48:52;44.90;;;21.40;;
62056;SDS011;48016;50.284;18.860;2022-11-15T00:51:18;37.50;;;18.80;;
62056;SDS011;48016;50.284;18.860;2022-11-15T00:53:45;38.50;;;18.60;;
62056;SDS011;48016;50.284;18.860;2022-11-15T00:56:11;39.30;;;19.00;;
62056;SDS011;48016;50.284;18.860;2022-11-15T00:58:38;39.60;;;18.40;;
62056;SDS011;48016;50.284;18.860;2022-11-15T01:01:12;39.80;;;20.30;;
62056;SDS011;48016;50.284;18.860;2022-11-15T01:03:40;34.90;;;19.60;;
62056;SDS011;48016;50.284;18.860;2022-11-15T01:06:08;39.00;;;19.90;;
62056;SDS011;48016;50.284;18.860;2022-11-15T01:11:03;35.00;;;18.90;;
62056;SDS011;48016;50.284;18.860;2022-11-15T01:13:35;43.20;;;19.80;;
62056;SDS011;48016;50.284;18.860;2022-11-15T01:16:07;35.70;;;19.20;;
62056;SDS011;48016;50.284;18.860;2022-11-15T01:18:35;37.50;;;19.50;;
62056;SDS011;48016;50.284;18.860;2022-11-15T01:21:07;35.10;;;18.00;;
62056;SDS011;48016;50.284;18.860;2022-11-15T01:23:38;37.30;;;18.90;;
62056;SDS011;48016;50.284;18.860;2022-11-15T01:26:06;34.20;;;17.40;;
62056;SDS011;48016;50.284;18.860;2022-11-15T01:28:37;37.70;;;18.90;;
62056;SDS011;48016;50.284;18.860;2022-11-15T01:31:06;30.30;;;16.70;;
62056;SDS011;48016;50.284;18.860;2022-11-15T01:33:36;28.40;;;16.40;;
62056;SDS011;48016;50.284;18.860;2022-11-15T01:36:03;31.40;;;17.00;;
62056;SDS011;48016;50.284;18.860;2022-11-15T01:38:32;34.30;;;17.90;;
62056;SDS011;48016;50.284;18.860;2022-11-15T01:40:59;29.20;;;17.20;;
62056;SDS011;48016;50.284;18.860;2022-11-15T01:43:27;33.00;;;17.70;;
62056;SDS011;48016;50.284;18.860;2022-11-15T01:46:00;32.60;;;17.80;;
62056;SDS011;48016;50.284;18.860;2022-11-15T01:48:49;36.30;;;17.40;;
62056;SDS011;48016;50.284;18.860;2022-11-15T01:51:19;33.70;;;17.20;;
62056;SDS011;48016;50.284;18.860;2022-11-15T01:53:49;33.90;;;17.80;;
62056;SDS011;48016;50.284;18.860;2022-11-15T01:56:20;30.70;;;16.70;;
62056;SDS011;48016;50.284;18.860;2022-11-15T01:58:49;33.30;;;17.70;;
62056;SDS011;48016;50.284;18.860;2022-11-15T02:01:17;28.80;;;16.00;;
62056;SDS011;48016;50.284;18.860;2022-11-15T02:06:11;28.20;;;16.80;;
62056;SDS011;48016;50.284;18.860;2022-11-15T02:08:38;30.10;;;15.50;;
62056;SDS011;48016;50.284;18.860;2022-11-15T02:11:08;32.00;;;17.00;;
62056;SDS011;48016;50.284;18.860;2022-11-15T02:13:35;29.00;;;16.50;;
62056;SDS011;48016;50.284;18.860;2022-11-15T02:19:08;33.20;;;17.70;;
62056;SDS011;48016;50.284;18.860;2022-11-15T02:21:49;29.50;;;16.20;;
62056;SDS011;48016;50.284;18.860;2022-11-15T02:36:36;35.50;;;18.70;;
62056;SDS011;48016;50.284;18.860;2022-11-15T02:39:16;34.50;;;18.40;;
62056;SDS011;48016;50.284;18.860;2022-11-15T02:44:24;33.60;;;17.90;;
62056;SDS011;48016;50.284;18.860;2022-11-15T02:49:41;39.20;;;19.90;;
62056;SDS011;48016;50.284;18.860;2022-11-15T02:52:16;32.20;;;18.30;;
62056;SDS011;48016;50.284;18.860;2022-11-15T02:54:54;31.20;;;17.00;;
62056;SDS011;48016;50.284;18.860;2022-11-15T03:02:45;35.20;;;17.70;;
62056;SDS011;48016;50.284;18.860;2022-11-15T03:05:35;31.30;;;17.30;;
62056;SDS011;48016;50.284;18.860;2022-11-15T03:13:27;26.10;;;14.80;;
62056;SDS011;48016;50.284;18.860;2022-11-15T03:16:06;34.90;;;17.70;;
62056;SDS011;48016;50.284;18.860;2022-11-15T03:18:53;31.50;;;16.50;;
62056;SDS011;48016;50.284;18.860;2022-11-15T03:21:29;28.30;;;14.10;;
62056;SDS011;48016;50.284;18.860;2022-11-15T03:23:58;28.40;;;15.50;;
62056;SDS011;48016;50.284;18.860;2022-11-15T03:26:29;28.30;;;15.60;;
62056;SDS011;48016;50.284;18.860;2022-11-15T03:28:58;32.70;;;15.40;;
62056;SDS011;48016;50.284;18.860;2022-11-15T03:31:33;27.10;;;13.70;;
62056;SDS011;48016;50.284;18.860;2022-11-15T03:34:37;30.50;;;16.10;;
62056;SDS011;48016;50.284;18.860;2022-11-15T03:37:01;30.50;;;16.60;;
62056;SDS011;48016;50.284;18.860;2022-11-15T03:39:31;28.20;;;15.50;;
62056;SDS011;48016;50.284;18.860;2022-11-15T03:47:25;32.60;;;15.30;;
62056;SDS011;48016;50.284;18.860;2022-11-15T03:50:19;31.30;;;15.90;;
62056;SDS011;48016;50.284;18.860;2022-11-15T03:52:47;29.70;;;14.70;;
62056;SDS011;48016;50.284;18.860;2022-11-15T03:55:17;29.30;;;15.10;;
62056;SDS011;48016;50.284;18.860;2022-11-15T03:57:46;31.80;;;14.90;;
62056;SDS011;48016;50.284;18.860;2022-11-15T04:00:16;33.00;;;16.90;;
62056;SDS011;48016;50.284;18.860;2022-11-15T04:02:42;32.50;;;16.70;;
62056;SDS011;48016;50.284;18.860;2022-11-15T04:05:09;30.30;;;16.10;;
62056;SDS011;48016;50.284;18.860;2022-11-15T04:07:36;31.50;;;15.40;;
62056;SDS011;48016;50.284;18.860;2022-11-15T04:10:04;32.80;;;16.90;;
62056;SDS011;48016;50.284;18.860;2022-11-15T04:12:32;30.80;;;15.60;;
62056;SDS011;48016;50.284;18.860;2022-11-15T04:15:01;31.90;;;16.50;;
62056;SDS011;48016;50.284;18.860;2022-11-15T04:20:05;30.50;;;14.90;;
62056;SDS011;48016;50.284;18.860;2022-11-15T04:23:00;33.70;;;16.20;;
62056;SDS011;48016;50.284;18.860;2022-11-15T04:25:54;32.30;;;15.20;;
62056;SDS011;48016;50.284;18.860;2022-11-15T04:28:22;34.10;;;16.80;;
62056;SDS011;48016;50.284;18.860;2022-11-15T04:30:50;35.80;;;16.90;;
62056;SDS011;48016;50.284;18.860;2022-11-15T04:35:43;33.50;;;16.10;;
62056;SDS011;48016;50.284;18.860;2022-11-15T04:38:10;30.80;;;16.50;;
62056;SDS011;48016;50.284;18.860;2022-11-15T04:40:37;29.10;;;14.60;;
62056;SDS011;48016;50.284;18.860;2022-11-15T04:43:04;30.10;;;16.90;;
62056;SDS011;48016;50.284;18.860;2022-11-15T04:45:30;31.10;;;16.30;;
62056;SDS011;48016;50.284;18.860;2022-11-15T04:47:57;30.80;;;15.30;;
62056;SDS011;48016;50.284;18.860;2022-11-15T04:50:24;31.80;;;16.60;;
62056;SDS011;48016;50.284;18.860;2022-11-15T04:52:51;29.60;;;15.60;;
62056;SDS011;48016;50.284;18.860;2022-11-15T04:55:20;33.90;;;17.10;;
62056;SDS011;48016;50.284;18.860;2022-11-15T04:57:47;34.20;;;16.90;;
62056;SDS011;48016;50.284;18.860;2022-11-15T05:00:15;36.60;;;17.00;;
62056;SDS011;48016;50.284;18.860;2022-11-15T05:02:43;29.20;;;14.60;;
62056;SDS011;48016;50.284;18.860;2022-11-15T05:05:28;29.00;;;15.30;;
62056;SDS011;48016;50.284;18.860;2022-11-15T05:07:55;30.10;;;16.10;;
62056;SDS011;48016;50.284;18.860;2022-11-15T05:10:22;31.70;;;15.80;;
62056;SDS011;48016;50.284;18.860;2022-11-15T05:12:49;29.80;;;15.20;;
62056;SDS011;48016;50.284;18.860;2022-11-15T05:15:15;30.20;;;16.40;;
62056;SDS011;48016;50.284;18.860;2022-11-15T05:17:42;32.70;;;16.30;;
62056;SDS011;48016;50.284;18.860;2022-11-15T05:20:09;34.00;;;17.90;;
62056;SDS011;48016;50.284;18.860;2022-11-15T05:22:36;37.50;;;19.00;;
62056;SDS011;48016;50.284;18.860;2022-11-15T05:25:02;33.70;;;18.10;;
62056;SDS011;48016;50.284;18.860;2022-11-15T05:27:30;39.20;;;18.40;;
62056;SDS011;48016;50.284;18.860;2022-11-15T05:29:56;33.10;;;18.30;;
62056;SDS011;48016;50.284;18.860;2022-11-15T05:32:25;36.20;;;17.30;;
62056;SDS011;48016;50.284;18.860;2022-11-15T05:34:52;36.40;;;19.00;;
62056;SDS011;48016;50.284;18.860;2022-11-15T05:37:19;33.70;;;17.00;;
62056;SDS011;48016;50.284;18.860;2022-11-15T05:39:45;36.50;;;18.30;;
62056;SDS011;48016;50.284;18.860;2022-11-15T05:42:13;37.30;;;19.60;;
62056;SDS011;48016;50.284;18.860;2022-11-15T05:44:43;34.90;;;16.70;;
62056;SDS011;48016;50.284;18.860;2022-11-15T05:47:16;35.80;;;17.20;;
62056;SDS011;48016;50.284;18.860;2022-11-15T05:49:48;32.00;;;16.30;;
62056;SDS011;48016;50.284;18.860;2022-11-15T05:52:18;31.60;;;16.00;;
62056;SDS011;48016;50.284;18.860;2022-11-15T05:54:49;29.60;;;16.10;;
62056;SDS011;48016;50.284;18.860;2022-11-15T05:59:43;30.20;;;16.10;;
62056;SDS011;48016;50.284;18.860;2022-11-15T06:02:10;33.10;;;17.70;;
62056;SDS011;48016;50.284;18.860;2022-11-15T06:07:04;32.90;;;18.60;;
62056;SDS011;48016;50.284;18.860;2022-11-15T06:09:30;37.10;;;17.80;;
62056;SDS011;48016;50.284;18.860;2022-11-15T06:11:57;36.20;;;17.70;;
62056;SDS011;48016;50.284;18.860;2022-11-15T06:14:24;35.50;;;17.50;;
62056;SDS011;48016;50.284;18.860;2022-11-15T06:16:50;34.00;;;18.00;;
62056;SDS011;48016;50.284;18.860;2022-11-15T06:19:17;38.30;;;19.90;;
62056;SDS011;48016;50.284;18.860;2022-11-15T06:21:43;33.90;;;17.80;;
62056;SDS011;48016;50.284;18.860;2022-11-15T06:24:10;32.90;;;17.60;;
62056;SDS011;48016;50.284;18.860;2022-11-15T06:26:37;32.10;;;17.30;;
62056;SDS011;48016;50.284;18.860;2022-11-15T06:29:04;33.80;;;17.50;;
62056;SDS011;48016;50.284;18.860;2022-11-15T06:33:59;33.80;;;16.10;;
62056;SDS011;48016;50.284;18.860;2022-11-15T06:36:25;28.60;;;14.90;;
62056;SDS011;48016;50.284;18.860;2022-11-15T06:38:52;31.20;;;17.60;;
62056;SDS011;48016;50.284;18.860;2022-11-15T06:41:19;32.50;;;17.30;;
62056;SDS011;48016;50.284;18.860;2022-11-15T06:43:47;31.20;;;17.30;;
62056;SDS011;48016;50.284;18.860;2022-11-15T06:46:13;32.80;;;18.60;;
62056;SDS011;48016;50.284;18.860;2022-11-15T06:48:40;33.20;;;18.60;;
62056;SDS011;48016;50.284;18.860;2022-11-15T06:51:07;37.50;;;19.80;;
62056;SDS011;48016;50.284;18.860;2022-11-15T06:53:34;33.50;;;18.90;;
62056;SDS011;48016;50.284;18.860;2022-11-15T06:56:02;36.90;;;19.00;;
62056;SDS011;48016;50.284;18.860;2022-11-15T06:58:31;37.60;;;20.40;;
62056;SDS011;48016;50.284;18.860;2022-11-15T07:01:04;41.80;;;20.70;;
62056;SDS011;48016;50.284;18.860;2022-11-15T07:03:35;39.80;;;20.70;;
62056;SDS011;48016;50.284;18.860;2022-11-15T07:06:07;44.50;;;21.10;;
62056;SDS011;48016;50.284;18.860;2022-11-15T07:08:35;42.50;;;20.70;;
62056;SDS011;48016;50.284;18.860;2022-11-15T07:11:02;43.20;;;21.90;;
62056;SDS011;48016;50.284;18.860;2022-11-15T07:13:31;56.00;;;27.00;;
62056;SDS011;48016;50.284;18.860;2022-11-15T07:16:05;59.30;;;28.00;;
62056;SDS011;48016;50.284;18.860;2022-11-15T07:18:35;62.90;;;27.30;;
62056;SDS011;48016;50.284;18.860;2022-11-15T07:21:04;65.80;;;30.60;;
62056;SDS011;48016;50.284;18.860;2022-11-15T07:23:32;56.70;;;26.80;;
62056;SDS011;48016;50.284;18.860;2022-11-15T07:25:59;56.80;;;26.50;;
62056;SDS011;48016;50.284;18.860;2022-11-15T07:28:27;54.80;;;26.70;;
62056;SDS011;48016;50.284;18.860;2022-11-15T07:30:54;58.10;;;28.10;;
62056;SDS011;48016;50.284;18.860;2022-11-15T07:33:21;63.90;;;28.00;;
62056;SDS011;48016;50.284;18.860;2022-11-15T07:35:48;54.90;;;28.60;;
62056;SDS011;48016;50.284;18.860;2022-11-15T07:38:15;53.40;;;28.50;;
62056;SDS011;48016;50.284;18.860;2022-11-15T07:40:45;54.00;;;26.70;;
62056;SDS011;48016;50.284;18.860;2022-11-15T07:43:13;49.30;;;25.00;;
62056;SDS011;48016;50.284;18.860;2022-11-15T07:45:43;54.20;;;29.50;;
62056;SDS011;48016;50.284;18.860;2022-11-15T07:48:11;50.00;;;26.90;;
62056;SDS011;48016;50.284;18.860;2022-11-15T07:50:40;52.00;;;27.20;;
62056;SDS011;48016;50.284;18.860;2022-11-15T07:53:08;48.10;;;24.80;;
62056;SDS011;48016;50.284;18.860;2022-11-15T07:55:37;44.30;;;24.40;;
62056;SDS011;48016;50.284;18.860;2022-11-15T07:58:07;49.70;;;26.90;;
62056;SDS011;48016;50.284;18.860;2022-11-15T08:00:35;50.00;;;27.80;;
62056;SDS011;48016;50.284;18.860;2022-11-15T08:05:35;49.30;;;27.00;;
62056;SDS011;48016;50.284;18.860;2022-11-15T08:08:03;51.90;;;29.20;;
62056;SDS011;48016;50.284;18.860;2022-11-15T08:10:31;56.80;;;27.70;;
62056;SDS011;48016;50.284;18.860;2022-11-15T08:13:02;60.30;;;29.50;;
62056;SDS011;48016;50.284;18.860;2022-11-15T08:15:31;51.30;;;27.80;;
62056;SDS011;48016;50.284;18.860;2022-11-15T08:20:26;57.50;;;31.80;;
62056;SDS011;48016;50.284;18.860;2022-11-15T08:22:59;54.70;;;28.40;;
62056;SDS011;48016;50.284;18.860;2022-11-15T08:25:30;69.00;;;33.80;;
62056;SDS011;48016;50.284;18.860;2022-11-15T08:27:59;64.30;;;32.50;;
62056;SDS011;48016;50.284;18.860;2022-11-15T08:30:29;69.40;;;35.50;;
62056;SDS011;48016;50.284;18.860;2022-11-15T08:32:57;81.80;;;39.80;;
62056;SDS011;48016;50.284;18.860;2022-11-15T08:35:25;81.50;;;38.80;;
62056;SDS011;48016;50.284;18.860;2022-11-15T08:37:52;89.30;;;43.20;;
62056;SDS011;48016;50.284;18.860;2022-11-15T08:42:46;68.10;;;37.30;;
62056;SDS011;48016;50.284;18.860;2022-11-15T08:45:14;62.50;;;32.10;;
62056;SDS011;48016;50.284;18.860;2022-11-15T08:47:41;62.20;;;37.00;;
62056;SDS011;48016;50.284;18.860;2022-11-15T08:50:08;69.10;;;38.30;;
62056;SDS011;48016;50.284;18.860;2022-11-15T08:52:35;73.10;;;38.80;;
62056;SDS011;48016;50.284;18.860;2022-11-15T08:55:01;67.90;;;39.20;;
62056;SDS011;48016;50.284;18.860;2022-11-15T08:57:29;58.70;;;37.30;;
62056;SDS011;48016;50.284;18.860;2022-11-15T08:59:59;61.50;;;38.00;;
62056;SDS011;48016;50.284;18.860;2022-11-15T09:02:25;60.80;;;35.30;;
62056;SDS011;48016;50.284;18.860;2022-11-15T09:04:52;53.20;;;32.40;;
62056;SDS011;48016;50.284;18.860;2022-11-15T09:07:19;58.50;;;32.30;;
62056;SDS011;48016;50.284;18.860;2022-11-15T09:09:45;56.20;;;33.20;;
62056;SDS011;48016;50.284;18.860;2022-11-15T09:12:12;48.90;;;32.40;;
62056;SDS011;48016;50.284;18.860;2022-11-15T09:14:38;55.50;;;33.20;;
62056;SDS011;48016;50.284;18.860;2022-11-15T09:17:08;61.50;;;34.20;;
62056;SDS011;48016;50.284;18.860;2022-11-15T09:19:35;56.50;;;32.50;;
62056;SDS011;48016;50.284;18.860;2022-11-15T09:22:05;49.90;;;28.80;;
62056;SDS011;48016;50.284;18.860;2022-11-15T09:24:34;49.20;;;27.80;;
62056;SDS011;48016;50.284;18.860;2022-11-15T09:27:01;51.00;;;28.80;;
62056;SDS011;48016;50.284;18.860;2022-11-15T09:29:27;48.00;;;31.00;;
62056;SDS011;48016;50.284;18.860;2022-11-15T09:31:54;44.50;;;27.10;;
62056;SDS011;48016;50.284;18.860;2022-11-15T09:34:21;55.20;;;29.20;;
62056;SDS011;48016;50.284;18.860;2022-11-15T09:36:47;50.30;;;30.20;;
62056;SDS011;48016;50.284;18.860;2022-11-15T09:39:14;45.50;;;27.80;;
62056;SDS011;48016;50.284;18.860;2022-11-15T09:47:50;39.30;;;23.60;;
62056;SDS011;48016;50.284;18.860;2022-11-15T09:50:21;35.30;;;22.80;;
62056;SDS011;48016;50.284;18.860;2022-11-15T09:52:57;38.90;;;22.70;;
62056;SDS011;48016;50.284;18.860;2022-11-15T09:55:38;33.40;;;22.20;;
62056;SDS011;48016;50.284;18.860;2022-11-15T09:58:36;39.00;;;24.00;;
62056;SDS011;48016;50.284;18.860;2022-11-15T10:01:16;40.20;;;25.60;;
62056;SDS011;48016;50.284;18.860;2022-11-15T10:03:49;39.50;;;25.70;;
62056;SDS011;48016;50.284;18.860;2022-11-15T10:06:22;36.20;;;23.30;;
62056;SDS011;48016;50.284;18.860;2022-11-15T10:08:54;43.10;;;25.20;;
62056;SDS011;48016;50.284;18.860;2022-11-15T10:11:29;41.20;;;24.20;;
62056;SDS011;48016;50.284;18.860;2022-11-15T10:14:41;42.10;;;25.10;;
62056;SDS011;48016;50.284;18.860;2022-11-15T10:19:26;45.30;;;24.70;;
62056;SDS011;48016;50.284;18.860;2022-11-15T10:24:46;43.60;;;27.40;;
62056;SDS011;48016;50.284;18.860;2022-11-15T10:27:17;39.90;;;24.50;;
62056;SDS011;48016;50.284;18.860;2022-11-15T10:29:49;36.80;;;22.80;;
62056;SDS011;48016;50.284;18.860;2022-11-15T10:32:19;38.60;;;23.70;;
62056;SDS011;48016;50.284;18.860;2022-11-15T10:34:48;35.10;;;23.40;;
62056;SDS011;48016;50.284;18.860;2022-11-15T10:37:26;34.90;;;22.70;;
62056;SDS011;48016;50.284;18.860;2022-11-15T10:42:32;34.90;;;20.30;;
62056;SDS011;48016;50.284;18.860;2022-11-15T10:44:59;34.30;;;20.50;;
62056;SDS011;48016;50.284;18.860;2022-11-15T10:47:26;33.00;;;20.60;;
62056;SDS011;48016;50.284;18.860;2022-11-15T10:49:58;37.90;;;21.40;;
62056;SDS011;48016;50.284;18.860;2022-11-15T10:52:26;31.60;;;20.20;;
62056;SDS011;48016;50.284;18.860;2022-11-15T10:57:29;30.60;;;19.10;;
62056;SDS011;48016;50.284;18.860;2022-11-15T11:00:00;36.20;;;20.80;;
62056;SDS011;48016;50.284;18.860;2022-11-15T11:04:57;36.20;;;20.80;;
62056;SDS011;48016;50.284;18.860;2022-11-15T11:07:26;34.50;;;21.00;;
62056;SDS011;48016;50.284;18.860;2022-11-15T11:09:58;32.70;;;20.40;;
62056;SDS011;48016;50.284;18.860;2022-11-15T11:12:33;38.70;;;21.40;;
62056;SDS011;48016;50.284;18.860;2022-11-15T11:15:02;33.60;;;21.40;;
62056;SDS011;48016;50.284;18.860;2022-11-15T11:31:58;40.80;;;24.20;;
62056;SDS011;48016;50.284;18.860;2022-11-15T11:34:58;39.30;;;22.10;;
62056;SDS011;48016;50.284;18.860;2022-11-15T11:40:30;35.60;;;21.50;;
62056;SDS011;48016;50.284;18.860;2022-11-15T11:43:06;37.00;;;20.90;;
62056;SDS011;48016;50.284;18.860;2022-11-15T11:46:13;35.50;;;22.30;;
62056;SDS011;48016;50.284;18.860;2022-11-15T11:51:42;36.20;;;20.40;;
62056;SDS011;48016;50.284;18.860;2022-11-15T11:56:57;30.50;;;19.80;;
62056;SDS011;48016;50.284;18.860;2022-11-15T11:59:39;32.40;;;19.80;;
62056;SDS011;48016;50.284;18.860;2022-11-15T12:02:19;33.50;;;19.60;;
62056;SDS011;48016;50.284;18.860;2022-11-15T12:05:09;29.80;;;18.90;;
62056;SDS011;48016;50.284;18.860;2022-11-15T12:07:43;31.80;;;20.30;;
62056;SDS011;48016;50.284;18.860;2022-11-15T12:10:24;35.90;;;20.60;;
62056;SDS011;48016;50.284;18.860;2022-11-15T12:12:58;29.60;;;19.50;;
62056;SDS011;48016;50.284;18.860;2022-11-15T12:15:30;32.40;;;19.10;;
62056;SDS011;48016;50.284;18.860;2022-11-15T12:18:01;30.20;;;19.50;;
62056;SDS011;48016;50.284;18.860;2022-11-15T12:20:35;27.50;;;18.80;;
62056;SDS011;48016;50.284;18.860;2022-11-15T12:23:13;28.00;;;18.00;;
62056;SDS011;48016;50.284;18.860;2022-11-15T12:30:55;33.40;;;19.80;;
62056;SDS011;48016;50.284;18.860;2022-11-15T12:33:37;31.60;;;19.30;;
62056;SDS011;48016;50.284;18.860;2022-11-15T12:36:29;28.90;;;18.30;;
62056;SDS011;48016;50.284;18.860;2022-11-15T12:39:09;32.30;;;19.30;;
62056;SDS011;48016;50.284;18.860;2022-11-15T12:44:05;33.90;;;20.10;;
62056;SDS011;48016;50.284;18.860;2022-11-15T13:02:22;38.50;;;22.00;;
62056;SDS011;48016;50.284;18.860;2022-11-15T13:05:50;34.90;;;21.20;;
62056;SDS011;48016;50.284;18.860;2022-11-15T13:10:32;39.20;;;23.40;;
62056;SDS011;48016;50.284;18.860;2022-11-15T13:13:04;39.90;;;24.40;;
62056;SDS011;48016;50.284;18.860;2022-11-15T13:15:39;44.70;;;25.80;;
62056;SDS011;48016;50.284;18.860;2022-11-15T13:20:59;52.20;;;29.00;;
62056;SDS011;48016;50.284;18.860;2022-11-15T13:23:26;49.90;;;28.30;;
62056;SDS011;48016;50.284;18.860;2022-11-15T13:28:31;42.70;;;26.20;;
62056;SDS011;48016;50.284;18.860;2022-11-15T13:33:57;40.20;;;23.50;;
62056;SDS011;48016;50.284;18.860;2022-11-15T13:36:28;38.70;;;22.90;;
62056;SDS011;48016;50.284;18.860;2022-11-15T13:39:04;37.10;;;22.40;;
62056;SDS011;48016;50.284;18.860;2022-11-15T13:41:45;40.00;;;23.10;;
62056;SDS011;48016;50.284;18.860;2022-11-15T13:44:33;36.30;;;22.60;;
62056;SDS011;48016;50.284;18.860;2022-11-15T13:49:33;41.90;;;23.00;;
